Aeroporto :
LOGIN :

Iscrizione | Disclaimer

   EN    FR    IT 

 










Sommario :    VFR   VFR Marginale   IFR   IFR Intensivo   IFR Molto Intensivo
Visibilità : 
Base nubi : 
>= 8 km
>= 3000ft
5 / 8 km
1000 / 3000 ft
1500m / 5 km
500 / 1000 ft
800 / 1500m
200 / 500 ft
< 800m
< 200 ft
Simboli :   Temporali  Nebbia  Neve Forte  Precipitazioni Forti  Vento > 20 kt
SIGMETs :   Varie  Temporali  Ghiacco  Turbolenza  Onda orograficha  Ceneri Vulcaniche






- Altitudine del aeroporto : 1568 ft


ETSB - Büchel AB

ULTIMO METAR :
  • 022020Z AUTO 19005KT 1000 // ////// M00/M00 Q1011 ///

METARs OBSOLETI :
  • 021920Z AUTO 22004KT 0400 // ////// M00/M00 Q1012 ///
  • 021820Z AUTO 18004KT 0200 // ////// M00/M00 Q1012 ///

TAF TAF ETSB
Valido dal 02 a 15 ore il 03 a 00 ore UTC


021421Z 0215/0224 08005KT 5000 BR FEW002 BKN005
TEMPO 0215/0218 06005KT 2000 BR BKN001 OVC003
BECMG 0217/0219 08005KT 0400 FG VV000 BY ETGL



MetMap, La meteo Aeronautica in un colpo d'occhio ! - Copyright ORBIFLY Dicembre 2007 - Disclaimer

ORBIFLY MET'MAP TEAM :

Programmazione e sviluppo : Alexandra Zaïnal
Concezione : Baudouin d'Aumeries
Aiuto per la programmazione : Marc-Olivier Méhu
Supporto tecnico e logistico : Manuel Goepfert
Aiuto per la traduzione : Arnaldo La Scala

Contatto : metmap@orbifly.com




FONTI E CREDITI :

   NOAA